Ana Sayfa
METAR-TAF:

METAR-TAF

Havaalanları :

Gran Canaria Havalimanı

Gran Canaria, İspanya

Enlem: 27-56N, Boylam: 015-23W, yükseklik: 23 m

Güncel hava durumu gözlemi

Rapor saat 08:30 UTC de 39 dakika önce yapıldı.
Rüzgar kuzeydan 16 kt
Sıcaklık 23°C
Nem 53%
Basınç 1019 hPa
Görüş mesafesi 10 km veya daha fazla
4500 ft yükseklikte parçalı çok bulutlu

METAR: GCLP 170830Z 01016KT 9999 BKN045 23/13 Q1019 NOSIG

Saat: 10:09 (09:09 UTC)

Tahmin

Rapor saat 08:00 UTC de 1 saat ve 9 dakika önce yapıldı.
Ayın 17'si saat 09 UTC'den ayın 18'si saat 09 UTC'ye kadar geçerli Tahmin
Rüzgar kuzey/kuzeydoğudan 19 kt
Görüş mesafesi 10 km veya daha fazla
2500 ft yükseklikte parçalı çok bulutlu
Olasılık 30% :
Geçici
ayın 17'si saat 22 UTC'den ayın 18'si saat 09 UTC'ye kadar
çisenti

TAF: GCLP 170800Z 1709/1809 02019KT 9999 BKN025 TX26/1715Z TN20/1805Z PROB30 TEMPO 1722/1809 DZ

4.000'den fazla havaalanı için hava durumu gözlemleri ve tahminleri (METAR ve TAF raporları).

Kullanılabilir istasyonlar harita üzerinde sarı ve kırmızı noktalarla gösterilir.

İstasyonun adını görmek için fareyi noktanın üzerinde gezdirin.

Sonrasında hava gözlem ve tahminlerini görmek için tıklayın.

Haritayı değiştirmek için: yaklaştırmak için siyah artı işaretli yeşil düğmeye ve uzaklaştırmak için de eksi işaretli düğmeye hızla tıklayın; bitişik haritalar için yeşil okları kullanın.


METAR-TAF: